Time;durP1;ratioP1;P1;durP2;ratioP2;P2;SDS_P1;SDS_P2;PMS_P1;PMS_P2;Temp;Humidity;BMP_temperature;BMP_pressure;BME280_temperature;BME280_humidity;BME280_pressure;Samples;Min_cycle;Max_cycle;Signal;HPM_P1;HPM_P2
2021/06/23 05:25:44;;;;;;;47.47;36.10;;;;;;;;;;5067643;28;20381;-71
2021/06/23 05:28:09;;;;;;;38.03;31.50;;;;;;;;;;5032081;28;20127;-70
2021/06/23 05:30:34;;;;;;;41.88;32.22;;;;;;;;;;5020511;28;20038;-74
2021/06/23 05:32:59;;;;;;;34.83;29.97;;;;;;;;;;5020229;28;20044;-72
2021/06/23 05:35:24;;;;;;;31.92;28.73;;;;;;;;;;5046167;28;20267;-72
2021/06/23 05:37:50;;;;;;;30.50;27.67;;;;;;;;;;5061664;28;20021;-70
2021/06/23 05:40:16;;;;;;;29.80;27.02;;;;;;;;;;5034264;28;20022;-70
2021/06/23 05:42:41;;;;;;;30.48;27.50;;;;;;;;;;5025152;28;20549;-69
2021/06/23 05:45:07;;;;;;;28.60;26.10;;;;;;;;;;5030861;28;20049;-69
2021/06/23 05:47:33;;;;;;;24.02;21.70;;;;;;;;;;5043669;28;20084;-69
2021/06/23 05:49:58;;;;;;;19.42;18.02;;;;;;;;;;5045562;28;20071;-69
2021/06/23 05:52:23;;;;;;;19.17;17.85;;;;;;;;;;5044831;28;20463;-69
2021/06/23 05:54:48;;;;;;;18.50;17.30;;;;;;;;;;5045250;28;20703;-69
2021/06/23 05:57:13;;;;;;;19.03;17.63;;;;;;;;;;5045197;28;20264;-70
2021/06/23 05:59:39;;;;;;;18.20;16.77;;;;;;;;;;5042918;28;20264;-69
2021/06/23 06:02:04;;;;;;;16.02;14.85;;;;;;;;;;5044319;28;20033;-69
2021/06/23 06:04:29;;;;;;;15.43;14.23;;;;;;;;;;5044394;28;20060;-69
2021/06/23 06:06:54;;;;;;;16.25;15.15;;;;;;;;;;5043623;28;20483;-69
2021/06/23 06:09:20;;;;;;;16.23;14.80;;;;;;;;;;5044794;28;20120;-69
2021/06/23 06:11:45;;;;;;;13.23;12.18;;;;;;;;;;5043504;28;20045;-69
2021/06/23 06:14:10;;;;;;;12.95;11.95;;;;;;;;;;5060002;28;20111;-70
2021/06/23 06:16:35;;;;;;;10.83;10.13;;;;;;;;;;5045939;28;20022;-70
2021/06/23 06:19:00;;;;;;;11.25;10.55;;;;;;;;;;5044480;28;20322;-70
2021/06/23 06:21:26;;;;;;;13.27;12.00;;;;;;;;;;5044667;28;20069;-69
2021/06/23 06:23:51;;;;;;;12.97;10.67;;;;;;;;;;5059288;28;20045;-70
2021/06/23 06:26:17;;;;;;;11.23;10.30;;;;;;;;;;5044756;28;20260;-70
2021/06/23 06:28:42;;;;;;;9.48;8.55;;;;;;;;;;5046656;28;20009;-69
2021/06/23 06:31:07;;;;;;;11.05;10.00;;;;;;;;;;5043734;28;20063;-70
2021/06/23 06:33:33;;;;;;;8.07;7.47;;;;;;;;;;5059191;28;20035;-70
2021/06/23 06:35:58;;;;;;;7.60;6.68;;;;;;;;;;5036774;28;20825;-70
2021/06/23 06:38:23;;;;;;;7.97;7.37;;;;;;;;;;5031123;28;20049;-70
2021/06/23 06:40:48;;;;;;;7.70;7.00;;;;;;;;;;5033327;28;20335;-70
2021/06/23 06:43:14;;;;;;;7.40;6.90;;;;;;;;;;5030823;28;20025;-71
2021/06/23 06:45:39;;;;;;;6.82;6.28;;;;;;;;;;5030248;28;20418;-70
2021/06/23 06:48:05;;;;;;;7.82;7.10;;;;;;;;;;5030677;28;20104;-69
2021/06/23 06:50:30;;;;;;;7.60;6.80;;;;;;;;;;5029783;28;20469;-70
2021/06/23 06:52:55;;;;;;;7.73;7.10;;;;;;;;;;5033021;28;20032;-70
2021/06/23 06:55:21;;;;;;;8.05;7.43;;;;;;;;;;5030986;28;20264;-69
2021/06/23 06:57:50;;;;;;;8.75;7.15;;;;;;;;;;5031076;28;20476;-71
2021/06/23 07:00:16;;;;;;;7.57;6.30;;;;;;;;;;5025869;28;20257;-71
2021/06/23 07:02:41;;;;;;;6.40;6.00;;;;;;;;;;5025176;28;20025;-70
2021/06/23 07:05:06;;;;;;;7.20;6.47;;;;;;;;;;5032818;28;20057;-70
2021/06/23 07:07:32;;;;;;;6.55;5.95;;;;;;;;;;5029485;28;20037;-70
2021/06/23 07:09:57;;;;;;;6.73;6.30;;;;;;;;;;5029755;28;20042;-70
2021/06/23 07:12:22;;;;;;;6.43;6.03;;;;;;;;;;5030462;28;20268;-70
2021/06/23 07:14:47;;;;;;;7.03;5.43;;;;;;;;;;5029093;28;20272;-69
2021/06/23 07:17:12;;;;;;;6.67;6.27;;;;;;;;;;5045953;28;20264;-70
2021/06/23 07:19:38;;;;;;;6.63;6.07;;;;;;;;;;5032679;28;20749;-70
2021/06/23 07:22:03;;;;;;;5.32;4.82;;;;;;;;;;5030665;28;21165;-69
2021/06/23 07:24:28;;;;;;;6.10;5.60;;;;;;;;;;5029959;28;20057;-69
2021/06/23 07:26:58;;;;;;;6.50;6.00;;;;;;;;;;5030504;28;20025;-70
2021/06/23 07:29:23;;;;;;;5.30;5.00;;;;;;;;;;5030479;28;20075;-70
2021/06/23 07:31:57;;;;;;;5.57;5.07;;;;;;;;;;5027286;28;20053;-69
2021/06/23 07:36:57;;;;;;;6.60;6.10;;;;;;;;;;5030334;28;20033;-70
2021/06/23 07:39:22;;;;;;;5.85;5.25;;;;;;;;;;5028959;28;20034;-70
2021/06/23 07:41:48;;;;;;;5.60;5.20;;;;;;;;;;5045715;28;20033;-70
2021/06/23 07:44:17;;;;;;;5.28;4.88;;;;;;;;;;5029710;28;20029;-69
2021/06/23 07:46:50;;;;;;;5.90;4.93;;;;;;;;;;5031007;28;20017;-69
2021/06/23 07:49:16;;;;;;;6.55;6.03;;;;;;;;;;5025118;28;20030;-69
2021/06/23 08:10:30;;;;;;;7.25;5.60;;;;;;;;;;5029403;28;20394;-69
2021/06/23 08:12:58;;;;;;;6.60;6.10;;;;;;;;;;5029050;28;20090;-68
2021/06/23 08:15:27;;;;;;;6.57;6.18;;;;;;;;;;5028902;28;20041;-69
2021/06/23 08:17:53;;;;;;;6.28;5.75;;;;;;;;;;5029106;28;20029;-68
2021/06/23 08:20:18;;;;;;;6.53;5.93;;;;;;;;;;5029402;28;20364;-69
2021/06/23 08:22:44;;;;;;;7.23;6.73;;;;;;;;;;5029781;28;20104;-69
2021/06/23 08:25:09;;;;;;;6.60;6.10;;;;;;;;;;5027779;28;20387;-70
2021/06/23 08:27:34;;;;;;;6.90;6.30;;;;;;;;;;5029136;28;20068;-68
2021/06/23 08:30:00;;;;;;;6.68;5.97;;;;;;;;;;5029375;28;20064;-67
2021/06/23 08:32:25;;;;;;;7.00;6.40;;;;;;;;;;5026608;28;20026;-67
2021/06/23 08:34:50;;;;;;;6.67;6.10;;;;;;;;;;5030835;28;20025;-68
2021/06/23 08:37:16;;;;;;;6.97;6.38;;;;;;;;;;5028997;28;20280;-68
2021/06/23 08:39:41;;;;;;;6.35;5.95;;;;;;;;;;5029103;28;20038;-69
2021/06/23 08:42:08;;;;;;;6.97;6.30;;;;;;;;;;5028668;28;20018;-68
2021/06/23 08:44:33;;;;;;;6.72;6.20;;;;;;;;;;5027349;28;20037;-68
2021/06/23 08:46:59;;;;;;;7.30;6.57;;;;;;;;;;5029878;28;20029;-68
2021/06/23 08:49:25;;;;;;;6.57;5.97;;;;;;;;;;5027384;28;20363;-68
2021/06/23 08:51:50;;;;;;;6.63;6.10;;;;;;;;;;5028728;28;20120;-67
2021/06/23 08:54:15;;;;;;;6.72;6.22;;;;;;;;;;5027191;28;20026;-67
2021/06/23 08:56:41;;;;;;;6.40;5.80;;;;;;;;;;5028551;28;20029;-68
2021/06/23 08:59:07;;;;;;;5.00;4.60;;;;;;;;;;5029050;28;20253;-67
2021/06/23 09:01:32;;;;;;;4.95;4.55;;;;;;;;;;5023483;28;20112;-68
2021/06/23 09:03:58;;;;;;;4.05;3.75;;;;;;;;;;5026225;28;20037;-68
2021/06/23 09:06:42;;;;;;;4.95;4.55;;;;;;;;;;5027290;28;20049;-67
2021/06/23 09:09:14;;;;;;;4.43;4.05;;;;;;;;;;5028363;28;20444;-67
2021/06/23 09:11:40;;;;;;;5.45;5.05;;;;;;;;;;5028367;28;20040;-68
2021/06/23 09:14:09;;;;;;;4.30;3.90;;;;;;;;;;5029995;28;20021;-67
2021/06/23 09:16:34;;;;;;;3.60;3.30;;;;;;;;;;5026591;28;20034;-70
2021/06/23 09:18:59;;;;;;;3.63;3.40;;;;;;;;;;5026870;28;20416;-68
2021/06/23 09:21:24;;;;;;;3.35;3.15;;;;;;;;;;5028492;28;20283;-68
2021/06/23 09:23:51;;;;;;;4.40;4.10;;;;;;;;;;5027920;28;20038;-67
2021/06/23 09:26:16;;;;;;;3.13;2.92;;;;;;;;;;5026797;28;20021;-69
2021/06/23 09:28:42;;;;;;;3.72;3.40;;;;;;;;;;5030274;28;20506;-68
2021/06/23 09:31:09;;;;;;;4.20;3.80;;;;;;;;;;5026751;28;20528;-68
2021/06/23 09:33:34;;;;;;;3.70;3.40;;;;;;;;;;5027615;28;20034;-68
2021/06/23 09:36:04;;;;;;;3.75;3.45;;;;;;;;;;5027012;28;20032;-65
2021/06/23 09:38:31;;;;;;;3.17;2.97;;;;;;;;;;5028296;28;20096;-68
2021/06/23 09:40:57;;;;;;;3.78;3.47;;;;;;;;;;5029868;28;20450;-67
2021/06/23 09:43:22;;;;;;;4.15;3.47;;;;;;;;;;5027711;28;20165;-67
2021/06/23 09:45:53;;;;;;;3.50;3.30;;;;;;;;;;5027671;28;20057;-68
2021/06/23 09:48:18;;;;;;;4.00;3.70;;;;;;;;;;5028011;28;20022;-65
2021/06/23 09:50:43;;;;;;;4.15;3.85;;;;;;;;;;5026772;28;20713;-66
2021/06/23 09:53:12;;;;;;;3.63;3.40;;;;;;;;;;5029518;28;20025;-65
2021/06/23 09:55:39;;;;;;;5.18;3.47;;;;;;;;;;5027281;28;20022;-66
2021/06/23 09:58:13;;;;;;;4.72;3.85;;;;;;;;;;5026954;28;20042;-66
2021/06/23 10:00:57;;;;;;;6.10;3.35;;;;;;;;;;5025951;28;20033;-66
2021/06/23 10:03:23;;;;;;;3.40;3.08;;;;;;;;;;5020785;28;20034;-66
2021/06/23 10:05:48;;;;;;;3.83;3.28;;;;;;;;;;5027634;28;20049;-66
2021/06/23 10:08:20;;;;;;;3.70;3.40;;;;;;;;;;5026377;28;20048;-66
2021/06/23 10:10:46;;;;;;;3.85;3.55;;;;;;;;;;5030842;28;20422;-66
2021/06/23 10:13:11;;;;;;;3.72;3.40;;;;;;;;;;5019863;28;20095;-64
2021/06/23 10:15:36;;;;;;;4.10;3.70;;;;;;;;;;5011522;28;20153;-62
2021/06/23 10:18:02;;;;;;;3.42;3.15;;;;;;;;;;5030961;28;20033;-62
2021/06/23 10:20:28;;;;;;;4.00;2.78;;;;;;;;;;5030387;28;20053;-64
2021/06/23 10:22:53;;;;;;;3.72;3.53;;;;;;;;;;5033010;28;20025;-63
2021/06/23 10:25:18;;;;;;;5.28;3.42;;;;;;;;;;5029713;28;20103;-70
2021/06/23 10:27:49;;;;;;;3.55;3.35;;;;;;;;;;5029986;28;20025;-66
2021/06/23 10:30:15;;;;;;;3.10;2.90;;;;;;;;;;5031589;28;20045;-66
2021/06/23 10:32:41;;;;;;;5.22;4.03;;;;;;;;;;5029981;28;20064;-66
2021/06/23 10:35:06;;;;;;;3.72;3.53;;;;;;;;;;5033277;28;20033;-65
2021/06/23 10:37:36;;;;;;;3.85;3.55;;;;;;;;;;5030957;28;20029;-65
2021/06/23 10:40:03;;;;;;;4.30;3.60;;;;;;;;;;5031016;28;20666;-65
2021/06/23 10:42:30;;;;;;;3.92;3.63;;;;;;;;;;5030750;28;20040;-65
2021/06/23 10:44:56;;;;;;;3.90;3.10;;;;;;;;;;5031299;28;20026;-66
2021/06/23 10:47:34;;;;;;;3.78;3.22;;;;;;;;;;5030375;28;20013;-67
2021/06/23 10:50:00;;;;;;;4.00;3.63;;;;;;;;;;5032997;28;20075;-67
2021/06/23 10:52:26;;;;;;;3.30;2.95;;;;;;;;;;5030437;28;20120;-66
2021/06/23 10:54:55;;;;;;;3.65;3.38;;;;;;;;;;5030734;28;20468;-65
2021/06/23 10:57:33;;;;;;;3.22;2.92;;;;;;;;;;5031029;28;20033;-66
2021/06/23 11:00:03;;;;;;;3.55;3.35;;;;;;;;;;5030935;28;20041;-66
2021/06/23 11:02:29;;;;;;;3.67;3.30;;;;;;;;;;5028665;28;20053;-65
2021/06/23 11:04:57;;;;;;;4.18;3.88;;;;;;;;;;5032684;28;20514;-69
2021/06/23 11:07:41;;;;;;;3.30;3.10;;;;;;;;;;5029003;28;20495;-65
2021/06/23 11:10:16;;;;;;;4.35;3.60;;;;;;;;;;5029381;28;20033;-65
2021/06/23 11:12:51;;;;;;;3.72;3.45;;;;;;;;;;5028703;28;20046;-65
2021/06/23 11:15:18;;;;;;;3.65;3.35;;;;;;;;;;5030413;28;20026;-65
2021/06/23 11:17:44;;;;;;;3.92;3.53;;;;;;;;;;5039054;23;20041;-64
2021/06/23 11:20:19;;;;;;;3.30;3.00;;;;;;;;;;5030137;28;20022;-65
2021/06/23 11:22:48;;;;;;;3.33;3.13;;;;;;;;;;5045672;28;20368;-65
2021/06/23 11:25:34;;;;;;;3.78;2.80;;;;;;;;;;5029972;28;20699;-66
2021/06/23 11:28:12;;;;;;;2.88;2.67;;;;;;;;;;5030273;28;20037;-67
2021/06/23 11:30:57;;;;;;;2.85;2.65;;;;;;;;;;5030429;28;20044;-66
2021/06/23 11:33:43;;;;;;;3.00;2.60;;;;;;;;;;5029420;28;20145;-66
2021/06/23 11:36:09;;;;;;;3.58;2.80;;;;;;;;;;5030029;28;20022;-66
2021/06/23 11:38:35;;;;;;;3.35;3.05;;;;;;;;;;5029339;28;20029;-68
2021/06/23 11:41:01;;;;;;;2.83;2.47;;;;;;;;;;5031922;28;20426;-68
2021/06/23 11:43:26;;;;;;;2.78;2.55;;;;;;;;;;5029555;28;20049;-68
2021/06/23 11:45:52;;;;;;;3.13;2.20;;;;;;;;;;5029941;28;20378;-68
2021/06/23 11:48:18;;;;;;;2.40;2.10;;;;;;;;;;5029281;28;20332;-68
2021/06/23 11:50:44;;;;;;;2.50;2.30;;;;;;;;;;5029830;28;20056;-68
2021/06/23 11:53:10;;;;;;;7.18;3.17;;;;;;;;;;5031319;28;20104;-68
2021/06/23 11:55:36;;;;;;;3.28;2.90;;;;;;;;;;5029539;28;20030;-68
2021/06/23 11:58:02;;;;;;;3.60;3.40;;;;;;;;;;5029445;28;20039;-68
2021/06/23 12:00:28;;;;;;;3.63;2.90;;;;;;;;;;5029672;28;20041;-68
2021/06/23 12:02:54;;;;;;;3.25;2.95;;;;;;;;;;5028718;28;20041;-68
2021/06/23 12:05:20;;;;;;;3.97;3.30;;;;;;;;;;5029364;28;20042;-68
2021/06/23 12:07:45;;;;;;;3.55;2.72;;;;;;;;;;5031238;28;20014;-68
2021/06/23 12:10:11;;;;;;;2.90;2.70;;;;;;;;;;5029722;28;20570;-68
2021/06/23 12:12:36;;;;;;;3.70;3.40;;;;;;;;;;5028924;28;20037;-69
2021/06/23 12:15:02;;;;;;;3.30;3.00;;;;;;;;;;5027785;28;20030;-69
2021/06/23 12:17:27;;;;;;;4.47;3.42;;;;;;;;;;5028750;28;20087;-69
2021/06/23 12:19:53;;;;;;;4.90;3.72;;;;;;;;;;5031067;28;20025;-69
2021/06/23 12:22:19;;;;;;;4.85;4.35;;;;;;;;;;5029011;28;20739;-71
2021/06/23 12:24:44;;;;;;;5.18;3.30;;;;;;;;;;5027916;28;20064;-69
2021/06/23 12:27:09;;;;;;;5.03;3.70;;;;;;;;;;5029358;28;20030;-71
2021/06/23 12:29:36;;;;;;;3.30;3.00;;;;;;;;;;5028004;28;20553;-69
2021/06/23 12:32:02;;;;;;;4.13;3.13;;;;;;;;;;5030774;28;20432;-70
2021/06/23 12:34:28;;;;;;;4.55;2.90;;;;;;;;;;5028161;28;20071;-69
2021/06/23 12:36:54;;;;;;;3.35;2.85;;;;;;;;;;5024200;28;20069;-70
2021/06/23 12:39:19;;;;;;;3.05;2.72;;;;;;;;;;5009362;28;20046;-70
2021/06/23 12:41:44;;;;;;;3.35;2.88;;;;;;;;;;5009466;28;20254;-70
2021/06/23 12:44:10;;;;;;;3.60;2.92;;;;;;;;;;5009318;28;20026;-70
2021/06/23 12:46:35;;;;;;;5.07;3.47;;;;;;;;;;5009329;28;20569;-70
2021/06/23 12:49:00;;;;;;;3.60;3.37;;;;;;;;;;5026513;28;20868;-70
2021/06/23 12:51:25;;;;;;;4.50;3.38;;;;;;;;;;5028654;28;20109;-69
2021/06/23 12:53:51;;;;;;;3.30;3.00;;;;;;;;;;5028301;28;20026;-70
2021/06/23 12:56:16;;;;;;;3.50;3.00;;;;;;;;;;5028533;28;20025;-70
2021/06/23 12:58:41;;;;;;;3.58;3.22;;;;;;;;;;5030499;28;20383;-70
2021/06/23 13:01:07;;;;;;;4.45;3.50;;;;;;;;;;5028900;28;20041;-69
2021/06/23 13:03:32;;;;;;;3.50;3.27;;;;;;;;;;5027571;28;20125;-70
2021/06/23 13:06:00;;;;;;;4.20;3.80;;;;;;;;;;5028833;28;20335;-69
2021/06/23 13:08:26;;;;;;;4.53;3.38;;;;;;;;;;5028807;28;20468;-70
2021/06/23 13:10:51;;;;;;;3.78;3.42;;;;;;;;;;5030737;28;20021;-70
2021/06/23 13:13:16;;;;;;;4.10;3.67;;;;;;;;;;5028283;28;20026;-71
2021/06/23 13:15:41;;;;;;;4.03;3.70;;;;;;;;;;5028576;28;20280;-69
2021/06/23 13:18:08;;;;;;;4.22;3.03;;;;;;;;;;5028006;28;20034;-70
2021/06/23 13:20:35;;;;;;;3.85;3.50;;;;;;;;;;5028435;28;20029;-69
2021/06/23 13:23:00;;;;;;;4.28;3.88;;;;;;;;;;5029953;28;20497;-70
2021/06/23 13:25:25;;;;;;;3.63;3.17;;;;;;;;;;5026800;28;20045;-68
2021/06/23 13:27:51;;;;;;;3.88;3.58;;;;;;;;;;5043772;28;20033;-67
2021/06/23 13:30:16;;;;;;;4.15;3.85;;;;;;;;;;5028566;28;20029;-68
2021/06/23 13:32:42;;;;;;;4.38;3.33;;;;;;;;;;5027417;28;20033;-67
2021/06/23 13:35:07;;;;;;;3.80;3.30;;;;;;;;;;5028456;28;20117;-67
2021/06/23 13:37:32;;;;;;;3.38;3.17;;;;;;;;;;5028328;28;20307;-72
2021/06/23 13:39:58;;;;;;;6.22;3.33;;;;;;;;;;5028444;28;20079;-69
2021/06/23 13:42:23;;;;;;;4.82;3.80;;;;;;;;;;5028062;28;20125;-70
2021/06/23 13:44:48;;;;;;;5.53;3.40;;;;;;;;;;5028268;28;20041;-71
2021/06/23 13:47:13;;;;;;;4.10;3.70;;;;;;;;;;5031296;28;20022;-70
2021/06/23 13:49:39;;;;;;;5.35;3.92;;;;;;;;;;5034129;28;20244;-72
2021/06/23 13:52:04;;;;;;;3.23;2.87;;;;;;;;;;5030821;28;20034;-72
2021/06/23 13:54:29;;;;;;;4.10;3.35;;;;;;;;;;5027861;28;20038;-71
2021/06/23 13:56:54;;;;;;;3.42;3.13;;;;;;;;;;5031931;28;20579;-71
2021/06/23 13:59:20;;;;;;;4.15;3.50;;;;;;;;;;5032173;28;20285;-71
2021/06/23 14:01:45;;;;;;;3.78;3.50;;;;;;;;;;5034291;28;20017;-70
2021/06/23 14:04:10;;;;;;;4.43;4.00;;;;;;;;;;5030751;28;20103;-70
2021/06/23 14:06:35;;;;;;;4.97;3.83;;;;;;;;;;5031552;28;20269;-70
2021/06/23 14:09:01;;;;;;;3.83;3.47;;;;;;;;;;5032010;28;20080;-67
2021/06/23 14:11:26;;;;;;;3.77;3.57;;;;;;;;;;5031403;28;20017;-68
2021/06/23 14:13:51;;;;;;;3.65;3.35;;;;;;;;;;5033409;28;20032;-70
2021/06/23 14:16:16;;;;;;;3.45;2.90;;;;;;;;;;5032012;28;20033;-70
2021/06/23 14:18:42;;;;;;;4.10;3.20;;;;;;;;;;5031102;28;20042;-71
2021/06/23 14:21:07;;;;;;;3.77;3.27;;;;;;;;;;5031093;28;20280;-74
2021/06/23 14:23:33;;;;;;;4.13;3.53;;;;;;;;;;5046588;28;21866;-73
2021/06/23 14:25:59;;;;;;;4.53;3.33;;;;;;;;;;5033382;28;20268;-72
2021/06/23 14:28:24;;;;;;;5.78;3.10;;;;;;;;;;5029948;28;20376;-72
2021/06/23 14:30:49;;;;;;;3.63;3.30;;;;;;;;;;5030098;28;20037;-72
2021/06/23 14:33:14;;;;;;;4.13;3.47;;;;;;;;;;5030203;28;20025;-71
2021/06/23 14:35:40;;;;;;;5.23;3.07;;;;;;;;;;5026599;28;20031;-72
2021/06/23 14:38:05;;;;;;;3.15;2.90;;;;;;;;;;5045257;28;20269;-72
2021/06/23 14:40:31;;;;;;;3.60;3.30;;;;;;;;;;5011341;28;20048;-70
2021/06/23 14:42:56;;;;;;;5.57;4.07;;;;;;;;;;5010205;28;20053;-70
2021/06/23 14:45:21;;;;;;;5.03;3.50;;;;;;;;;;5010962;28;20056;-70
2021/06/23 14:47:47;;;;;;;3.95;3.60;;;;;;;;;;5014281;28;20375;-68
2021/06/23 14:50:13;;;;;;;4.28;3.22;;;;;;;;;;5032776;28;20013;-68
2021/06/23 14:52:38;;;;;;;4.05;3.70;;;;;;;;;;5030437;28;20117;-68
2021/06/23 14:55:04;;;;;;;3.58;3.28;;;;;;;;;;5030819;28;20037;-68
2021/06/23 14:57:29;;;;;;;3.80;3.50;;;;;;;;;;5030135;28;20037;-67
2021/06/23 14:59:56;;;;;;;3.63;3.33;;;;;;;;;;5029108;28;20113;-69
2021/06/23 15:02:22;;;;;;;3.95;3.60;;;;;;;;;;5030453;28;20494;-71
2021/06/23 15:04:47;;;;;;;4.60;3.10;;;;;;;;;;5046790;28;20049;-70
2021/06/23 15:07:12;;;;;;;4.00;3.73;;;;;;;;;;5030355;28;20985;-69
2021/06/23 15:09:37;;;;;;;4.28;3.90;;;;;;;;;;5030550;28;20037;-72
2021/06/23 15:12:03;;;;;;;5.53;4.10;;;;;;;;;;5029163;28;20026;-69
2021/06/23 15:14:28;;;;;;;4.55;4.15;;;;;;;;;;5029833;28;20059;-68
2021/06/23 15:16:53;;;;;;;4.20;3.80;;;;;;;;;;5032197;28;20022;-69
2021/06/23 15:19:18;;;;;;;5.47;3.73;;;;;;;;;;5029652;28;20037;-69
2021/06/23 15:21:45;;;;;;;5.07;4.67;;;;;;;;;;5030509;28;20276;-75
2021/06/23 15:24:10;;;;;;;3.97;3.67;;;;;;;;;;5030132;28;20310;-68
2021/06/23 15:26:35;;;;;;;4.27;3.80;;;;;;;;;;5030018;28;20030;-66
2021/06/23 15:29:01;;;;;;;4.20;3.80;;;;;;;;;;5030867;28;20275;-67
2021/06/23 15:31:27;;;;;;;3.70;3.40;;;;;;;;;;5030140;28;20635;-66
2021/06/23 15:33:52;;;;;;;4.00;3.70;;;;;;;;;;5029193;28;20048;-72
2021/06/23 15:36:17;;;;;;;3.93;3.67;;;;;;;;;;5045328;28;20750;-73
2021/06/23 15:38:43;;;;;;;4.05;3.55;;;;;;;;;;5028748;28;20665;-73
2021/06/23 15:41:10;;;;;;;4.80;3.80;;;;;;;;;;5030789;28;20041;-73
2021/06/23 15:43:35;;;;;;;3.90;3.50;;;;;;;;;;5028311;28;20029;-74
2021/06/23 15:46:01;;;;;;;5.13;3.22;;;;;;;;;;5029226;28;20435;-72
2021/06/23 15:48:26;;;;;;;4.07;3.28;;;;;;;;;;5029358;28;20030;-70
2021/06/23 15:50:52;;;;;;;3.80;3.50;;;;;;;;;;5024566;28;20118;-72
2021/06/23 15:53:18;;;;;;;5.65;3.70;;;;;;;;;;5007120;28;20192;-69
2021/06/23 15:55:43;;;;;;;4.05;3.67;;;;;;;;;;5010195;28;20021;-71
2021/06/23 15:58:18;;;;;;;4.72;3.97;;;;;;;;;;5008571;28;20480;-72
2021/06/23 16:00:44;;;;;;;4.97;3.40;;;;;;;;;;5009772;28;20120;-74
2021/06/23 16:03:09;;;;;;;5.00;3.78;;;;;;;;;;5011456;28;20157;-69
2021/06/23 16:05:34;;;;;;;4.50;3.97;;;;;;;;;;5029442;28;20400;-69
2021/06/23 16:07:59;;;;;;;7.33;3.80;;;;;;;;;;5029494;28;20414;-68
2021/06/23 16:10:25;;;;;;;3.87;3.57;;;;;;;;;;5029438;28;20355;-68
2021/06/23 16:12:50;;;;;;;5.23;3.73;;;;;;;;;;5028831;28;20268;-69
2021/06/23 16:15:15;;;;;;;3.90;3.50;;;;;;;;;;5029049;28;20630;-72
2021/06/23 16:17:41;;;;;;;3.90;3.45;;;;;;;;;;5029486;28;20274;-74
2021/06/23 16:20:07;;;;;;;4.90;3.78;;;;;;;;;;5030901;28;20025;-73
2021/06/23 16:22:35;;;;;;;5.18;3.70;;;;;;;;;;5028835;28;20034;-72
2021/06/23 16:25:00;;;;;;;4.38;3.97;;;;;;;;;;5027641;28;20042;-72
2021/06/23 16:27:25;;;;;;;4.60;4.10;;;;;;;;;;5029134;28;20112;-72
2021/06/23 16:29:50;;;;;;;3.88;3.67;;;;;;;;;;5029329;28;20299;-71
2021/06/23 16:32:16;;;;;;;4.17;3.57;;;;;;;;;;5028715;28;20095;-73
2021/06/23 16:34:41;;;;;;;6.10;4.13;;;;;;;;;;5030658;28;20738;-72
2021/06/23 16:37:06;;;;;;;3.88;3.58;;;;;;;;;;5028912;28;20033;-72
2021/06/23 16:39:31;;;;;;;6.60;4.40;;;;;;;;;;5027993;28;20464;-73
2021/06/23 16:41:57;;;;;;;3.67;3.37;;;;;;;;;;5029100;28;20599;-72
2021/06/23 16:44:23;;;;;;;4.03;3.72;;;;;;;;;;5028395;28;20318;-73
2021/06/23 16:46:48;;;;;;;5.05;4.00;;;;;;;;;;5030843;28;20436;-73
2021/06/23 16:49:14;;;;;;;3.77;3.47;;;;;;;;;;5028474;28;20034;-73
2021/06/23 16:51:39;;;;;;;4.30;4.00;;;;;;;;;;5028589;28;20264;-73
2021/06/23 16:54:05;;;;;;;5.07;3.70;;;;;;;;;;5027278;28;20037;-73
2021/06/23 16:56:30;;;;;;;3.70;3.38;;;;;;;;;;5027591;28;20426;-74
2021/06/23 16:58:55;;;;;;;4.38;3.97;;;;;;;;;;5029303;28;20095;-73
2021/06/23 17:01:21;;;;;;;4.28;3.83;;;;;;;;;;5028960;28;20194;-73
2021/06/23 17:03:46;;;;;;;3.95;3.55;;;;;;;;;;5015231;28;20037;-73
2021/06/23 17:06:12;;;;;;;4.00;3.55;;;;;;;;;;5028000;28;20032;-73
2021/06/23 17:08:38;;;;;;;3.83;3.53;;;;;;;;;;5027324;28;20479;-72
2021/06/23 17:11:03;;;;;;;3.55;3.25;;;;;;;;;;5029388;28;20064;-72
2021/06/23 17:13:29;;;;;;;4.10;3.67;;;;;;;;;;5028032;28;20029;-73
2021/06/23 17:15:55;;;;;;;4.22;3.80;;;;;;;;;;5027281;28;20107;-64
2021/06/23 17:18:20;;;;;;;7.30;4.10;;;;;;;;;;5027988;28;20045;-68
2021/06/23 17:20:45;;;;;;;3.90;3.60;;;;;;;;;;5028048;28;20091;-75
2021/06/23 17:23:12;;;;;;;3.90;3.60;;;;;;;;;;5030048;28;20021;-67
2021/06/23 17:25:37;;;;;;;3.95;3.65;;;;;;;;;;5027907;28;20042;-66
2021/06/23 17:28:02;;;;;;;7.93;4.55;;;;;;;;;;5028357;28;20095;-71
2021/06/23 17:30:28;;;;;;;67.22;13.85;;;;;;;;;;5028487;28;20037;-70
2021/06/23 17:32:53;;;;;;;9.48;6.57;;;;;;;;;;5027923;28;20029;-68
2021/06/23 17:35:18;;;;;;;16.58;9.73;;;;;;;;;;5027715;28;20048;-66
2021/06/23 17:37:44;;;;;;;5.05;4.65;;;;;;;;;;5030049;28;20022;-69
2021/06/23 17:40:12;;;;;;;4.00;3.70;;;;;;;;;;5028160;28;20037;-66
2021/06/23 17:42:37;;;;;;;11.95;8.57;;;;;;;;;;5027865;28;20099;-64
2021/06/23 17:45:03;;;;;;;6.95;6.18;;;;;;;;;;5028135;28;20505;-66
2021/06/23 17:47:28;;;;;;;7.05;5.70;;;;;;;;;;5028221;28;20520;-65
2021/06/23 17:49:53;;;;;;;5.50;5.00;;;;;;;;;;5029797;28;20047;-65
2021/06/23 17:52:19;;;;;;;5.50;4.95;;;;;;;;;;5027875;28;20280;-64
2021/06/23 17:54:44;;;;;;;6.03;4.63;;;;;;;;;;5028231;28;20042;-65
2021/06/23 17:57:09;;;;;;;3.95;3.55;;;;;;;;;;5028427;28;20083;-65
2021/06/23 17:59:35;;;;;;;4.60;4.30;;;;;;;;;;5028308;28;20021;-65
2021/06/23 18:02:00;;;;;;;4.57;4.18;;;;;;;;;;5030156;28;20264;-64
2021/06/23 18:04:25;;;;;;;4.13;3.88;;;;;;;;;;5022740;28;20030;-63
2021/06/23 18:06:51;;;;;;;5.28;4.78;;;;;;;;;;5025324;28;20053;-63
2021/06/23 18:09:16;;;;;;;7.53;4.60;;;;;;;;;;5028290;28;20507;-63
2021/06/23 18:11:41;;;;;;;5.85;5.32;;;;;;;;;;5028300;28;20057;-64
2021/06/23 18:14:07;;;;;;;4.75;4.35;;;;;;;;;;5029567;28;20017;-67
2021/06/23 18:16:32;;;;;;;5.25;4.45;;;;;;;;;;5028621;28;20048;-82
2021/06/23 18:18:57;;;;;;;5.63;5.13;;;;;;;;;;5028609;28;20049;-79
2021/06/23 18:21:22;;;;;;;7.20;4.70;;;;;;;;;;5029359;28;20037;-72
2021/06/23 18:23:48;;;;;;;6.47;5.43;;;;;;;;;;5026751;28;20279;-72
2021/06/23 18:26:20;;;;;;;5.28;4.78;;;;;;;;;;5030827;28;20044;-80
2021/06/23 18:28:45;;;;;;;5.68;5.20;;;;;;;;;;5030524;28;20026;-82
2021/06/23 18:31:10;;;;;;;6.00;5.53;;;;;;;;;;5045801;28;20135;-80
2021/06/23 18:33:36;;;;;;;6.13;5.63;;;;;;;;;;5032040;28;20041;-74
2021/06/23 18:36:01;;;;;;;8.27;5.50;;;;;;;;;;5030954;28;20033;-71
2021/06/23 18:38:26;;;;;;;6.28;5.78;;;;;;;;;;5031442;28;20108;-70
2021/06/23 18:40:55;;;;;;;6.90;4.75;;;;;;;;;;5034045;28;20017;-81
2021/06/23 18:43:21;;;;;;;6.22;5.70;;;;;;;;;;5031743;28;20068;-73
2021/06/23 18:45:47;;;;;;;9.30;7.35;;;;;;;;;;5031720;28;20443;-75
2021/06/23 18:48:13;;;;;;;231.68;22.77;;;;;;;;;;5030165;28;20051;-67
2021/06/23 18:50:39;;;;;;;81.90;17.60;;;;;;;;;;5022714;28;20037;-62
2021/06/23 18:53:04;;;;;;;53.05;6.05;;;;;;;;;;5031695;28;20017;-65
2021/06/23 18:55:29;;;;;;;0.32;0.25;;;;;;;;;;5030979;28;20052;-65
2021/06/23 18:57:56;;;;;;;0.00;0.00;;;;;;;;;;5030849;28;20180;-64
2021/06/23 19:00:22;;;;;;;43.97;9.52;;;;;;;;;;5031001;28;20107;-63
2021/06/23 19:02:49;;;;;;;41.30;3.42;;;;;;;;;;5030598;28;20535;-65
2021/06/23 19:05:15;;;;;;;17.08;1.95;;;;;;;;;;5027711;28;20387;-66
2021/06/23 19:07:41;;;;;;;0.00;0.00;;;;;;;;;;5026625;28;20109;-68
2021/06/23 19:10:07;;;;;;;0.00;0.00;;;;;;;;;;5027765;28;20044;-65
2021/06/23 19:12:32;;;;;;;0.00;0.00;;;;;;;;;;5029171;28;20451;-73
2021/06/23 19:14:57;;;;;;;0.10;0.10;;;;;;;;;;5028601;28;20080;-66
2021/06/23 19:17:23;;;;;;;0.00;0.00;;;;;;;;;;5030406;28;20025;-65
2021/06/23 19:19:48;;;;;;;0.00;0.00;;;;;;;;;;5032019;28;20029;-69
2021/06/23 19:22:13;;;;;;;0.00;0.00;;;;;;;;;;5030145;28;20068;-71
2021/06/23 19:24:38;;;;;;;0.00;0.00;;;;;;;;;;5029047;28;20547;-68
2021/06/23 19:27:04;;;;;;;1.45;0.75;;;;;;;;;;5028945;28;20026;-67
2021/06/23 19:29:30;;;;;;;4.60;1.80;;;;;;;;;;5029790;28;20056;-67
2021/06/23 19:31:55;;;;;;;12.15;4.45;;;;;;;;;;5032366;28;20033;-67
2021/06/23 19:34:20;;;;;;;7.10;2.30;;;;;;;;;;5028479;28;20461;-69
2021/06/23 19:36:45;;;;;;;6.82;0.90;;;;;;;;;;5027335;28;20124;-67
2021/06/23 19:39:11;;;;;;;2.60;0.80;;;;;;;;;;5029172;28;20497;-66
2021/06/23 19:41:36;;;;;;;1.42;0.70;;;;;;;;;;5030053;28;20029;-64
2021/06/23 19:44:02;;;;;;;1.73;0.73;;;;;;;;;;5031519;28;20146;-64
2021/06/23 19:46:27;;;;;;;2.13;0.77;;;;;;;;;;5029607;28;20045;-64
2021/06/23 19:48:54;;;;;;;4.72;1.02;;;;;;;;;;5029491;28;20056;-67
2021/06/23 19:51:19;;;;;;;3.58;0.90;;;;;;;;;;5029462;28;20502;-65
2021/06/23 19:53:44;;;;;;;3.10;1.00;;;;;;;;;;5029012;28;20030;-65
2021/06/23 19:56:09;;;;;;;6.40;1.35;;;;;;;;;;5031678;28;20021;-67
2021/06/23 19:58:35;;;;;;;2.42;1.25;;;;;;;;;;5029639;28;20466;-66
2021/06/23 20:01:00;;;;;;;3.17;1.33;;;;;;;;;;5029853;28;20032;-65
2021/06/23 20:03:25;;;;;;;5.75;1.63;;;;;;;;;;5029005;28;20079;-66
2021/06/23 20:05:51;;;;;;;7.00;3.25;;;;;;;;;;5028609;28;20450;-66
2021/06/23 20:08:16;;;;;;;6.72;4.50;;;;;;;;;;5031835;28;20017;-68
2021/06/23 20:10:41;;;;;;;6.55;5.13;;;;;;;;;;5028317;28;20041;-67
2021/06/23 20:13:06;;;;;;;4.65;4.18;;;;;;;;;;5029172;28;20046;-67
2021/06/23 20:15:32;;;;;;;5.47;4.75;;;;;;;;;;5029480;28;20562;-69
2021/06/23 20:17:58;;;;;;;5.35;4.85;;;;;;;;;;5029621;28;20813;-69
2021/06/23 20:20:25;;;;;;;5.47;5.07;;;;;;;;;;5028871;28;20051;-69